createdAt,value
2018-12-25T00:02:16.117Z,95134.25
2018-12-25T00:04:42.798Z,95135.89
2018-12-25T00:07:09.462Z,95139.55
2018-12-25T00:09:36.107Z,95143.75
2018-12-25T00:12:02.750Z,95145.39
2018-12-25T00:14:29.397Z,95157.11
2018-12-25T00:16:56.042Z,95166.98
2018-12-25T00:19:25.664Z,95172.42
2018-12-25T00:21:52.312Z,95172.45
2018-12-25T00:24:18.951Z,95174.95
2018-12-25T00:26:45.604Z,95175.58
2018-12-25T00:29:12.246Z,95182.02
2018-12-25T00:31:38.929Z,95178.39
2018-12-25T00:34:05.572Z,95182.15
2018-12-25T00:36:32.208Z,95183.06
2018-12-25T00:38:58.849Z,95178.94
2018-12-25T00:41:25.504Z,95171.48
2018-12-25T00:43:52.141Z,95165.39
2018-12-25T00:46:18.790Z,95173.76
2018-12-25T00:48:45.418Z,95176.75
2018-12-25T00:51:12.065Z,95172.97
2018-12-25T00:53:38.707Z,95167.78
2018-12-25T00:56:05.361Z,95168.70
2018-12-25T00:58:32.009Z,95178.39
2018-12-25T01:00:58.677Z,95177.41
2018-12-25T01:03:25.343Z,95178.64
2018-12-25T01:05:51.976Z,95178.80
2018-12-25T01:08:20.007Z,95180.67
2018-12-25T01:10:45.279Z,95181.59
2018-12-25T01:13:11.916Z,95186.76
2018-12-25T01:15:38.578Z,95185.63
2018-12-25T01:18:05.215Z,95181.59
2018-12-25T01:20:31.874Z,95196.27
2018-12-25T01:22:58.530Z,95204.82
2018-12-25T01:25:25.175Z,95203.59
2018-12-25T01:27:51.821Z,95203.72
2018-12-25T01:30:18.478Z,95212.94
2018-12-25T01:32:45.130Z,95210.41
2018-12-25T01:35:11.782Z,95213.95
2018-12-25T01:37:38.436Z,95218.36
2018-12-25T01:40:05.086Z,95216.47
2018-12-25T01:42:31.734Z,95216.50
2018-12-25T01:44:58.368Z,95211.05
2018-12-25T01:47:25.043Z,95204.52
2018-12-25T01:49:51.682Z,95207.80
2018-12-25T01:52:18.340Z,95194.41
2018-12-25T01:54:44.993Z,95183.93
2018-12-25T01:57:11.641Z,95197.44
2018-12-25T01:59:38.279Z,95195.16
2018-12-25T02:02:04.921Z,95198.45
2018-12-25T02:04:31.620Z,95200.72
2018-12-25T02:06:58.309Z,95204.00
2018-12-25T02:09:24.973Z,95210.70
2018-12-25T02:11:51.598Z,95208.80
2018-12-25T02:14:18.258Z,95207.70
2018-12-25T02:16:44.889Z,95218.18
2018-12-25T02:19:11.544Z,95208.48
2018-12-25T02:21:38.195Z,95207.83
2018-12-25T02:24:04.978Z,95210.98
2018-12-25T02:26:31.632Z,95201.01
2018-12-25T02:28:58.274Z,95206.66
2018-12-25T02:31:24.925Z,95203.78
2018-12-25T02:33:51.571Z,95212.34
2018-12-25T02:36:18.221Z,95216.38
2018-12-25T02:38:44.866Z,95208.45
2018-12-25T02:41:11.597Z,95216.25
2018-12-25T02:43:38.169Z,95210.70
2018-12-25T02:46:04.805Z,95215.36
2018-12-25T02:48:31.462Z,95216.25
2018-12-25T02:50:58.111Z,95213.98
2018-12-25T02:53:24.768Z,95218.74
2018-12-25T02:55:51.464Z,95217.23
2018-12-25T02:58:18.106Z,95205.87
2018-12-25T03:00:46.476Z,95208.80
2018-12-25T03:03:11.414Z,95206.66
2018-12-25T03:05:38.047Z,95208.77
2018-12-25T03:08:04.743Z,95217.35
2018-12-25T03:10:31.445Z,95220.77
2018-12-25T03:12:58.077Z,95223.28
2018-12-25T03:15:24.749Z,95222.78
2018-12-25T03:17:51.395Z,95228.34
2018-12-25T03:20:18.094Z,95228.72
2018-12-25T03:22:44.792Z,95242.89
2018-12-25T03:25:11.438Z,95254.09
2018-12-25T03:27:38.099Z,95254.83
2018-12-25T03:30:04.745Z,95266.38
2018-12-25T03:32:31.475Z,95251.67
2018-12-25T03:34:58.088Z,95257.14
2018-12-25T03:37:24.739Z,95243.56
2018-12-25T03:39:51.398Z,95240.39
2018-12-25T03:42:18.039Z,95264.47
2018-12-25T03:44:44.687Z,95270.00
2018-12-25T03:47:11.321Z,95272.70
2018-12-25T03:49:38.019Z,95270.12
2018-12-25T03:52:04.665Z,95284.26
2018-12-25T03:54:31.326Z,95293.45
2018-12-25T03:56:57.975Z,95291.94
2018-12-25T03:59:24.674Z,95313.87
2018-12-25T04:01:51.262Z,95310.56
2018-12-25T04:04:17.955Z,95311.60
2018-12-25T04:06:44.598Z,95321.05
2018-12-25T04:09:11.256Z,95324.55
2018-12-25T04:11:37.912Z,95326.95
2018-12-25T04:14:04.623Z,95337.78
2018-12-25T04:16:31.264Z,95337.66
2018-12-25T04:18:57.904Z,95342.71
2018-12-25T04:21:24.565Z,95339.81
2018-12-25T04:23:51.209Z,95347.00
2018-12-25T04:26:17.851Z,95340.47
2018-12-25T04:28:47.592Z,95338.31
2018-12-25T04:31:14.365Z,95343.37
2018-12-25T04:33:41.008Z,95353.24
2018-12-25T04:36:07.661Z,95360.81
2018-12-25T04:38:34.301Z,95365.48
2018-12-25T04:41:01.011Z,95367.61
2018-12-25T04:43:27.662Z,95367.13
2018-12-25T04:45:54.302Z,95363.72
2018-12-25T04:48:20.966Z,95369.94
2018-12-25T04:50:47.654Z,95364.38
2018-12-25T04:53:14.294Z,95370.54
2018-12-25T04:55:40.982Z,95377.36
2018-12-25T04:58:07.634Z,95370.54
2018-12-25T05:00:34.284Z,95372.17
2018-12-25T05:03:00.940Z,95385.21
2018-12-25T05:05:27.582Z,95385.21
2018-12-25T05:07:54.288Z,95395.41
2018-12-25T05:10:20.938Z,95392.00
2018-12-25T05:12:47.599Z,95396.67
2018-12-25T05:15:14.238Z,95405.01
2018-12-25T05:17:40.882Z,95414.73
2018-12-25T05:20:07.541Z,95422.71
2018-12-25T05:22:34.230Z,95416.73
2018-12-25T05:25:01.002Z,95422.95
2018-12-25T05:27:27.552Z,95424.20
2018-12-25T05:29:54.247Z,95423.95
2018-12-25T05:32:20.899Z,95446.67
2018-12-25T05:34:47.541Z,95446.41
2018-12-25T05:37:14.229Z,95444.90
2018-12-25T05:39:40.873Z,95427.10
2018-12-25T05:42:07.518Z,95440.38
2018-12-25T05:44:34.164Z,95445.66
2018-12-25T05:47:00.819Z,95447.31
2018-12-25T05:49:27.473Z,95444.79
2018-12-25T05:51:54.165Z,95448.83
2018-12-25T05:54:20.806Z,95451.09
2018-12-25T05:56:47.445Z,95455.25
2018-12-25T05:59:14.100Z,95458.66
2018-12-25T06:01:40.759Z,95460.55
2018-12-25T06:04:07.403Z,95456.64
2018-12-25T06:06:35.387Z,95459.55
2018-12-25T06:09:02.040Z,95461.08
2018-12-25T06:11:28.696Z,95467.12
2018-12-25T06:13:55.333Z,95476.50
2018-12-25T06:16:22.028Z,95479.50
2018-12-25T06:18:48.708Z,95486.06
2018-12-25T06:21:15.404Z,95489.72
2018-12-25T06:23:42.042Z,95492.38
2018-12-25T06:26:08.715Z,95488.58
2018-12-25T06:28:35.365Z,95491.01
2018-12-25T06:31:02.070Z,95491.73
2018-12-25T06:33:28.722Z,95492.62
2018-12-25T06:35:55.385Z,95495.53
2018-12-25T06:38:22.094Z,95491.50
2018-12-25T06:40:48.731Z,95496.67
2018-12-25T06:43:15.368Z,95501.72
2018-12-25T06:45:42.037Z,95499.20
2018-12-25T06:48:08.696Z,95491.62
2018-12-25T06:50:35.338Z,95486.22
2018-12-25T06:53:01.989Z,95486.06
2018-12-25T06:55:28.694Z,95489.86
2018-12-25T06:57:55.390Z,95485.05
2018-12-25T07:00:22.034Z,95495.80
2018-12-25T07:02:48.721Z,95497.71
2018-12-25T07:05:15.374Z,95493.40
2018-12-25T07:07:42.005Z,95494.66
2018-12-25T07:10:08.644Z,95497.55
2018-12-25T07:12:35.281Z,95492.51
2018-12-25T07:15:01.935Z,95484.55
2018-12-25T07:17:28.574Z,95496.17
2018-12-25T07:19:55.262Z,95495.80
2018-12-25T07:22:21.901Z,95496.16
2018-12-25T07:24:48.536Z,95503.37
2018-12-25T07:27:15.201Z,95508.55
2018-12-25T07:29:41.840Z,95509.94
2018-12-25T07:32:08.493Z,95512.72
2018-12-25T07:34:35.176Z,95505.27
2018-12-25T07:37:01.821Z,95509.55
2018-12-25T07:39:28.466Z,95510.19
2018-12-25T07:41:55.105Z,95522.05
2018-12-25T07:44:21.895Z,95525.09
2018-12-25T07:46:51.400Z,95518.53
2018-12-25T07:49:18.069Z,95518.13
2018-12-25T07:51:44.719Z,95515.85
2018-12-25T07:54:11.376Z,95519.14
2018-12-25T07:56:38.017Z,95518.40
2018-12-25T07:59:04.662Z,95522.55
2018-12-25T08:01:31.304Z,95518.63
2018-12-25T08:03:57.957Z,95518.78
2018-12-25T08:06:24.596Z,95525.47
2018-12-25T08:08:51.297Z,95524.56
2018-12-25T08:11:17.934Z,95529.88
2018-12-25T08:13:44.630Z,95524.06
2018-12-25T08:16:11.281Z,95530.50
2018-12-25T08:18:37.931Z,95528.50
2018-12-25T08:21:04.634Z,95530.38
2018-12-25T08:23:31.283Z,95528.39
2018-12-25T08:25:57.939Z,95525.59
2018-12-25T08:28:24.625Z,95537.84
2018-12-25T08:30:51.355Z,95536.84
2018-12-25T08:33:18.051Z,95535.69
2018-12-25T08:35:44.702Z,95541.89
2018-12-25T08:38:11.340Z,95537.81
2018-12-25T08:40:37.983Z,95530.50
2018-12-25T08:43:04.634Z,95526.31
2018-12-25T08:45:31.282Z,95530.98
2018-12-25T08:47:58.055Z,95525.28
2018-12-25T08:50:24.693Z,95519.34
2018-12-25T08:52:51.396Z,95520.61
2018-12-25T08:55:18.096Z,95521.85
2018-12-25T08:57:44.738Z,95522.10
2018-12-25T09:00:11.388Z,95514.53
2018-12-25T09:02:38.041Z,95516.55
2018-12-25T09:05:04.688Z,95521.47
2018-12-25T09:07:31.328Z,95514.05
2018-12-25T09:09:57.976Z,95517.94
2018-12-25T09:12:24.670Z,95514.28
2018-12-25T09:14:51.334Z,95514.51
2018-12-25T09:17:18.026Z,95517.28
2018-12-25T09:19:44.661Z,95516.55
2018-12-25T09:22:11.348Z,95508.95
2018-12-25T09:24:38.044Z,95510.73
2018-12-25T09:27:04.705Z,95515.38
2018-12-25T09:29:31.410Z,95507.66
2018-12-25T09:31:58.095Z,95512.73
2018-12-25T09:34:24.740Z,95517.52
2018-12-25T09:36:51.427Z,95509.67
2018-12-25T09:39:18.122Z,95510.30
2018-12-25T09:41:44.794Z,95507.02
2018-12-25T09:44:11.466Z,95513.08
2018-12-25T09:46:38.185Z,95510.28
2018-12-25T09:49:04.832Z,95513.06
2018-12-25T09:51:31.522Z,95510.28
2018-12-25T09:53:58.161Z,95512.18
2018-12-25T09:56:24.809Z,95509.63
2018-12-25T09:58:51.457Z,95499.40
2018-12-25T10:01:18.104Z,95500.03
2018-12-25T10:03:44.757Z,95503.44
2018-12-25T10:06:11.454Z,95504.20
2018-12-25T10:08:38.149Z,95501.68
2018-12-25T10:11:04.874Z,95494.07
2018-12-25T10:13:31.514Z,95485.10
2018-12-25T10:15:58.169Z,95476.66
2018-12-25T10:18:24.865Z,95465.87
2018-12-25T10:20:51.511Z,95465.37
2018-12-25T10:23:18.245Z,95478.12
2018-12-25T10:25:44.965Z,95486.31
2018-12-25T10:28:11.597Z,95469.51
2018-12-25T10:30:38.332Z,95467.97
2018-12-25T10:33:05.027Z,95467.95
2018-12-25T10:35:31.671Z,95467.34
2018-12-25T10:37:58.326Z,95475.27
2018-12-25T10:40:24.964Z,95465.55
2018-12-25T10:42:51.615Z,95470.85
2018-12-25T10:45:18.267Z,95463.67
2018-12-25T10:50:11.297Z,95448.48
2018-12-25T10:52:37.876Z,95456.45
2018-12-25T10:55:04.563Z,95458.19
2018-12-25T10:57:32.437Z,95456.55
2018-12-25T10:59:57.873Z,95445.86
2018-12-25T11:02:24.525Z,95446.09
2018-12-25T11:04:51.172Z,95448.59
2018-12-25T11:07:17.824Z,95445.70
2018-12-25T11:09:44.458Z,95444.22
2018-12-25T11:12:11.150Z,95443.48
2018-12-25T11:14:37.797Z,95444.14
2018-12-25T11:17:04.445Z,95448.06
2018-12-25T11:19:31.146Z,95445.53
2018-12-25T11:21:57.783Z,95443.78
2018-12-25T11:24:24.424Z,95445.81
2018-12-25T11:26:51.079Z,95456.30
2018-12-25T11:29:17.722Z,95457.30
2018-12-25T11:31:44.371Z,95455.94
2018-12-25T11:34:11.048Z,95442.72
2018-12-25T11:36:37.740Z,95439.61
2018-12-25T11:39:04.400Z,95449.24
2018-12-25T11:41:31.097Z,95461.82
2018-12-25T11:43:57.747Z,95454.45
2018-12-25T11:46:24.386Z,95440.48
2018-12-25T11:48:51.089Z,95441.12
2018-12-25T11:51:17.740Z,95443.02
2018-12-25T11:53:44.435Z,95443.08
2018-12-25T11:56:11.074Z,95446.47
2018-12-25T11:58:37.776Z,95436.50
2018-12-25T12:01:04.425Z,95452.36
2018-12-25T12:03:31.132Z,95444.51
2018-12-25T12:05:57.775Z,95448.02
2018-12-25T12:08:24.413Z,95450.91
2018-12-25T12:10:51.109Z,95454.98
2018-12-25T12:13:17.807Z,95449.67
2018-12-25T12:15:44.444Z,95457.09
2018-12-25T12:18:11.134Z,95465.59
2018-12-25T12:20:37.773Z,95468.36
2018-12-25T12:23:04.483Z,95469.38
2018-12-25T12:25:31.131Z,95468.77
2018-12-25T12:27:57.768Z,95464.70
2018-12-25T12:30:24.471Z,95469.62
2018-12-25T12:32:51.157Z,95464.45
2018-12-25T12:35:17.811Z,95472.53
2018-12-25T12:37:44.448Z,95478.83
2018-12-25T12:40:11.089Z,95482.11
2018-12-25T12:42:37.736Z,95478.85
2018-12-25T12:45:04.429Z,95478.34
2018-12-25T12:47:31.079Z,95476.83
2018-12-25T12:49:57.850Z,95483.88
2018-12-25T12:52:24.558Z,95484.91
2018-12-25T12:54:51.201Z,95477.72
2018-12-25T12:57:17.901Z,95484.69
2018-12-25T12:59:44.549Z,95481.50
2018-12-25T13:02:11.239Z,95486.56
2018-12-25T13:04:37.884Z,95488.58
2018-12-25T13:07:04.604Z,95483.77
2018-12-25T13:09:31.251Z,95485.44
2018-12-25T13:11:57.896Z,95488.85
2018-12-25T13:14:24.588Z,95494.53
2018-12-25T13:16:51.225Z,95488.59
2018-12-25T13:19:17.916Z,95488.47
2018-12-25T13:21:44.603Z,95492.48
2018-12-25T13:24:11.252Z,95494.41
2018-12-25T13:26:37.938Z,95489.23
2018-12-25T13:29:06.008Z,95490.36
2018-12-25T13:31:31.286Z,95503.65
2018-12-25T13:33:57.954Z,95501.75
2018-12-25T13:36:24.622Z,95506.30
2018-12-25T13:38:51.289Z,95508.67
2018-12-25T13:41:17.929Z,95505.16
2018-12-25T13:43:44.585Z,95509.98
2018-12-25T13:46:11.309Z,95508.72
2018-12-25T13:48:38.010Z,95516.45
2018-12-25T13:51:04.658Z,95519.45
2018-12-25T13:53:31.370Z,95528.44
2018-12-25T13:55:58.024Z,95528.67
2018-12-25T13:58:24.720Z,95525.66
2018-12-25T14:00:51.408Z,95522.76
2018-12-25T14:03:18.101Z,95518.71
2018-12-25T14:05:44.741Z,95519.22
2018-12-25T14:08:11.488Z,95524.27
2018-12-25T14:10:38.133Z,95533.23
2018-12-25T14:13:04.809Z,95529.58
2018-12-25T14:15:31.463Z,95531.37
2018-12-25T14:17:58.117Z,95540.81
2018-12-25T14:20:24.767Z,95541.72
2018-12-25T14:22:51.404Z,95544.12
2018-12-25T14:25:18.054Z,95555.34
2018-12-25T14:27:44.693Z,95553.86
2018-12-25T14:30:11.496Z,95555.50
2018-12-25T14:32:38.134Z,95558.89
2018-12-25T14:35:04.785Z,95565.37
2018-12-25T14:37:31.425Z,95570.78
2018-12-25T14:39:58.079Z,95570.04
2018-12-25T14:42:24.721Z,95578.63
2018-12-25T14:44:51.448Z,95579.02
2018-12-25T14:47:18.181Z,95578.00
2018-12-25T14:49:44.727Z,95576.70
2018-12-25T14:52:11.377Z,95575.33
2018-12-25T14:54:38.016Z,95575.94
2018-12-25T14:57:04.821Z,95579.22
2018-12-25T14:59:31.465Z,95579.73
2018-12-25T15:01:58.159Z,95583.02
2018-12-25T15:04:24.840Z,95581.36
2018-12-25T15:06:51.481Z,95582.88
2018-12-25T15:09:18.123Z,95584.88
2018-12-25T15:11:44.830Z,95581.11
2018-12-25T15:14:11.481Z,95581.73
2018-12-25T15:16:38.174Z,95589.41
2018-12-25T15:19:04.811Z,95588.78
2018-12-25T15:21:31.506Z,95591.19
2018-12-25T15:23:58.142Z,95595.73
2018-12-25T15:26:24.842Z,95591.92
2018-12-25T15:28:51.485Z,95589.92
2018-12-25T15:31:18.122Z,95594.45
2018-12-25T15:33:44.826Z,95594.94
2018-12-25T15:36:11.485Z,95599.38
2018-12-25T15:38:38.174Z,95606.32
2018-12-25T15:41:04.870Z,95602.55
2018-12-25T15:43:31.516Z,95600.80
2018-12-25T15:45:58.214Z,95606.59
2018-12-25T15:48:24.863Z,95602.03
2018-12-25T15:50:51.512Z,95609.64
2018-12-25T15:53:18.196Z,95616.59
2018-12-25T15:55:44.890Z,95612.30
2018-12-25T15:58:11.540Z,95612.05
2018-12-25T16:00:38.235Z,95612.30
2018-12-25T16:03:04.940Z,95614.82
2018-12-25T16:05:31.589Z,95620.79
2018-12-25T16:07:58.281Z,95628.76
2018-12-25T16:10:24.919Z,95626.24
2018-12-25T16:12:51.616Z,95629.89
2018-12-25T16:15:18.258Z,95623.96
2018-12-25T16:17:44.913Z,95625.72
2018-12-25T16:20:11.560Z,95637.47
2018-12-25T16:22:38.209Z,95624.84
2018-12-25T16:25:04.903Z,95636.06
2018-12-25T16:27:31.546Z,95638.10
2018-12-25T16:29:58.187Z,95639.08
2018-12-25T16:32:24.885Z,95642.77
2018-12-25T16:34:51.534Z,95645.41
2018-12-25T16:37:18.175Z,95652.98
2018-12-25T16:39:44.861Z,95648.30
2018-12-25T16:42:11.528Z,95653.73
2018-12-25T16:44:38.233Z,95652.98
2018-12-25T16:47:04.876Z,95648.58
2018-12-25T16:49:31.587Z,95649.59
2018-12-25T16:51:58.300Z,95654.39
2018-12-25T16:54:24.955Z,95658.17
2018-12-25T16:56:51.579Z,95654.13
2018-12-25T16:59:18.264Z,95657.53
2018-12-25T17:01:44.904Z,95650.48
2018-12-25T17:04:11.699Z,95653.12
2018-12-25T17:06:38.346Z,95655.02
2018-12-25T17:09:04.989Z,95655.39
2018-12-25T17:11:31.645Z,95660.69
2018-12-25T17:13:58.299Z,95654.89
2018-12-25T17:16:24.936Z,95665.88
2018-12-25T17:18:51.589Z,95667.50
2018-12-25T17:21:18.227Z,95670.80
2018-12-25T17:23:44.870Z,95672.95
2018-12-25T17:26:11.524Z,95673.68
2018-12-25T17:28:38.161Z,95679.89
2018-12-25T17:31:04.805Z,95686.18
2018-12-25T17:33:31.464Z,95682.92
2018-12-25T17:35:58.097Z,95681.64
2018-12-25T17:38:24.745Z,95681.15
2018-12-25T17:40:51.397Z,95683.17
2018-12-25T17:43:18.048Z,95678.87
2018-12-25T17:45:44.680Z,95689.59
2018-12-25T17:48:11.338Z,95692.38
2018-12-25T17:50:37.978Z,95691.12
2018-12-25T17:53:06.178Z,95693.03
2018-12-25T17:55:31.301Z,95685.84
2018-12-25T17:57:57.950Z,95685.95
2018-12-25T18:00:24.591Z,95681.04
2018-12-25T18:02:51.230Z,95682.41
2018-12-25T18:05:17.886Z,95683.30
2018-12-25T18:07:44.534Z,95689.23
2018-12-25T18:10:11.184Z,95681.90
2018-12-25T18:12:37.828Z,95678.87
2018-12-25T18:15:04.473Z,95684.30
2018-12-25T18:17:31.144Z,95686.69
2018-12-25T18:19:57.790Z,95685.44
2018-12-25T18:22:26.178Z,95701.23
2018-12-25T18:24:51.066Z,95691.02
2018-12-25T18:27:17.725Z,95688.09
2018-12-25T18:29:44.372Z,95690.12
2018-12-25T18:32:11.005Z,95694.92
2018-12-25T18:34:37.655Z,95690.89
2018-12-25T18:37:04.297Z,95688.73
2018-12-25T18:39:30.934Z,95698.70
2018-12-25T18:41:57.592Z,95686.22
2018-12-25T18:44:24.242Z,95683.80
2018-12-25T18:46:50.877Z,95690.61
2018-12-25T18:49:17.520Z,95685.05
2018-12-25T18:51:44.162Z,95681.28
2018-12-25T18:54:10.804Z,95685.83
2018-12-25T18:56:37.451Z,95688.83
2018-12-25T18:59:04.092Z,95696.05
2018-12-25T19:01:30.730Z,95693.27
2018-12-25T19:03:57.377Z,95693.77
2018-12-25T19:06:24.270Z,95685.69
2018-12-25T19:08:50.793Z,95686.83
2018-12-25T19:11:17.431Z,95689.09
2018-12-25T19:13:44.089Z,95679.75
2018-12-25T19:16:10.733Z,95689.25
2018-12-25T19:18:37.391Z,95700.85
2018-12-25T19:21:04.034Z,95710.57
2018-12-25T19:23:30.669Z,95713.09
2018-12-25T19:25:57.324Z,95715.01
2018-12-25T19:28:23.970Z,95713.86
2018-12-25T19:30:50.607Z,95711.60
2018-12-25T19:33:17.267Z,95710.44
2018-12-25T19:35:43.910Z,95714.47
2018-12-25T19:38:10.551Z,95718.27
2018-12-25T19:40:37.200Z,95726.36
2018-12-25T19:43:03.835Z,95731.15
2018-12-25T19:45:30.477Z,95728.99
2018-12-25T19:47:57.144Z,95729.36
2018-12-25T19:50:24.449Z,95732.65
2018-12-25T19:52:50.478Z,95737.83
2018-12-25T19:55:17.121Z,95739.49
2018-12-25T19:57:43.757Z,95741.00
2018-12-25T20:00:10.406Z,95744.80
2018-12-25T20:02:37.050Z,95744.27
2018-12-25T20:05:03.692Z,95744.30
2018-12-25T20:07:30.328Z,95744.41
2018-12-25T20:09:56.973Z,95747.80
2018-12-25T20:12:23.604Z,95753.93
2018-12-25T20:14:50.250Z,95744.59
2018-12-25T20:17:16.902Z,95744.62
2018-12-25T20:19:43.548Z,95748.30
2018-12-25T20:22:10.192Z,95737.08
2018-12-25T20:24:36.837Z,95744.28
2018-12-25T20:27:03.496Z,95746.05
2018-12-25T20:29:30.143Z,95747.05
2018-12-25T20:31:56.801Z,95756.52
2018-12-25T20:34:23.549Z,95762.83
2018-12-25T20:36:50.101Z,95757.90
2018-12-25T20:39:16.753Z,95746.05
2018-12-25T20:41:43.398Z,95756.64
2018-12-25T20:44:10.084Z,95752.23
2018-12-25T20:46:36.731Z,95758.67
2018-12-25T20:49:03.373Z,95765.86
2018-12-25T20:51:30.013Z,95766.11
2018-12-25T20:53:56.666Z,95759.44
2018-12-25T20:56:23.312Z,95765.11
2018-12-25T20:58:49.955Z,95775.22
2018-12-25T21:01:16.602Z,95774.45
2018-12-25T21:03:43.242Z,95767.87
2018-12-25T21:06:09.900Z,95766.87
2018-12-25T21:08:36.563Z,95774.05
2018-12-25T21:11:03.209Z,95776.85
2018-12-25T21:13:29.846Z,95777.09
2018-12-25T21:15:59.800Z,95767.52
2018-12-25T21:18:26.443Z,95764.34
2018-12-25T21:20:53.082Z,95773.82
2018-12-25T21:23:19.750Z,95767.39
2018-12-25T21:25:46.389Z,95765.63
2018-12-25T21:28:13.026Z,95768.78
2018-12-25T21:30:39.680Z,95773.43
2018-12-25T21:33:06.320Z,95771.66
2018-12-25T21:35:32.960Z,95771.17
2018-12-25T21:37:59.606Z,95772.42
2018-12-25T21:40:26.250Z,95768.28
2018-12-25T21:42:52.983Z,95766.48
2018-12-25T21:45:19.623Z,95771.05
2018-12-25T21:47:46.276Z,95769.39
2018-12-25T21:50:12.950Z,95773.42
2018-12-25T21:52:39.647Z,95772.55
2018-12-25T21:55:06.251Z,95772.80
2018-12-25T21:57:32.896Z,95781.00
2018-12-25T21:59:59.540Z,95778.97
2018-12-25T22:02:26.197Z,95780.12
2018-12-25T22:04:52.829Z,95778.62
2018-12-25T22:07:20.739Z,95785.18
2018-12-25T22:09:46.127Z,95791.25
2018-12-25T22:12:12.770Z,95794.78
2018-12-25T22:14:39.812Z,95795.28
2018-12-25T22:17:06.500Z,95799.20
2018-12-25T22:19:33.137Z,95798.43
2018-12-25T22:21:59.797Z,95800.96
2018-12-25T22:24:26.447Z,95794.02
2018-12-25T22:26:53.150Z,95788.33
2018-12-25T22:29:19.831Z,95788.58
2018-12-25T22:31:46.438Z,95781.02
2018-12-25T22:34:13.102Z,95787.20
2018-12-25T22:36:39.800Z,95782.25
2018-12-25T22:39:06.445Z,95788.83
2018-12-25T22:41:33.101Z,95782.66
2018-12-25T22:43:59.798Z,95790.98
2018-12-25T22:46:26.454Z,95779.73
2018-12-25T22:48:53.162Z,95785.04
2018-12-25T22:51:19.804Z,95788.20
2018-12-25T22:53:46.447Z,95788.33
2018-12-25T22:56:13.106Z,95786.45
2018-12-25T22:58:39.748Z,95794.65
2018-12-25T23:01:06.472Z,95795.03
2018-12-25T23:03:33.086Z,95791.38
2018-12-25T23:05:59.747Z,95788.22
2018-12-25T23:08:26.382Z,95787.97
2018-12-25T23:10:53.037Z,95785.93
2018-12-25T23:13:19.686Z,95783.91
2018-12-25T23:15:46.330Z,95783.78
2018-12-25T23:18:13.036Z,95793.00
2018-12-25T23:20:39.732Z,95796.27
2018-12-25T23:23:06.369Z,95800.81
2018-12-25T23:25:33.062Z,95801.06
2018-12-25T23:27:59.759Z,95797.55
2018-12-25T23:30:26.420Z,95801.84
2018-12-25T23:32:53.116Z,95804.34
2018-12-25T23:35:21.669Z,95802.84
2018-12-25T23:37:46.393Z,95802.98
2018-12-25T23:40:13.051Z,95809.41
2018-12-25T23:42:39.708Z,95809.02
2018-12-25T23:45:06.422Z,95811.31
2018-12-25T23:47:33.067Z,95812.95
2018-12-25T23:49:59.697Z,95808.91
2018-12-25T23:52:26.357Z,95809.92
2018-12-25T23:54:52.996Z,95807.03
2018-12-25T23:57:19.651Z,95802.73
2018-12-25T23:59:46.432Z,95806.38
